createdAt,value
2023-05-19T00:01:19.089Z,11.78
2023-05-19T00:03:54.044Z,11.81
2023-05-19T00:06:26.866Z,11.90
2023-05-19T00:09:01.761Z,11.82
2023-05-19T00:11:29.812Z,11.95
2023-05-19T00:13:58.493Z,11.87
2023-05-19T00:16:27.647Z,11.88
2023-05-19T00:18:54.400Z,11.84
2023-05-19T00:21:21.086Z,11.75
2023-05-19T00:23:47.628Z,11.80
2023-05-19T00:26:15.923Z,11.76
2023-05-19T00:28:43.526Z,11.67
2023-05-19T00:31:10.223Z,11.73
2023-05-19T00:33:36.725Z,11.68
2023-05-19T00:36:04.093Z,11.67
2023-05-19T00:38:32.143Z,11.73
2023-05-19T00:40:59.928Z,11.63
2023-05-19T00:43:26.973Z,11.67
2023-05-19T00:45:53.697Z,11.49
2023-05-19T00:48:20.912Z,11.63
2023-05-19T00:50:48.514Z,11.61
2023-05-19T00:53:17.503Z,11.61
2023-05-19T00:55:44.226Z,11.64
2023-05-19T00:58:12.658Z,11.66
2023-05-19T01:00:39.810Z,11.75
2023-05-19T01:03:13.368Z,11.61
2023-05-19T01:05:41.772Z,11.49
2023-05-19T01:08:09.078Z,11.58
2023-05-19T01:10:35.665Z,11.51
2023-05-19T01:13:04.512Z,11.47
2023-05-19T01:15:37.795Z,11.55
2023-05-19T01:18:13.857Z,11.54
2023-05-19T01:20:48.182Z,11.53
2023-05-19T01:23:23.970Z,11.59
2023-05-19T01:26:09.303Z,11.49
2023-05-19T01:29:16.360Z,11.38
2023-05-19T01:31:47.840Z,11.22
2023-05-19T01:34:15.301Z,11.40
2023-05-19T01:36:45.126Z,11.35
2023-05-19T01:39:12.413Z,11.43
2023-05-19T01:41:41.696Z,11.48
2023-05-19T01:44:08.849Z,11.44
2023-05-19T01:46:38.118Z,11.34
2023-05-19T01:49:06.473Z,11.33
2023-05-19T01:51:33.118Z,11.40
2023-05-19T01:53:59.677Z,11.38
2023-05-19T01:56:46.746Z,11.24
2023-05-19T01:59:47.726Z,11.21
2023-05-19T02:02:43.833Z,11.21
2023-05-19T02:05:29.578Z,11.00
2023-05-19T02:08:13.087Z,11.21
2023-05-19T02:10:43.658Z,11.32
2023-05-19T02:13:13.634Z,11.19
2023-05-19T02:15:45.448Z,11.13
2023-05-19T02:18:12.496Z,11.18
2023-05-19T02:20:40.140Z,11.48
2023-05-19T02:23:07.194Z,11.45
2023-05-19T02:25:33.924Z,11.16
2023-05-19T02:28:00.480Z,11.20
2023-05-19T02:30:27.010Z,11.25
2023-05-19T02:32:54.324Z,11.11
2023-05-19T02:35:21.450Z,11.09
2023-05-19T02:37:49.044Z,11.12
2023-05-19T02:40:15.623Z,11.07
2023-05-19T02:42:42.139Z,10.98
2023-05-19T02:45:08.899Z,11.02
2023-05-19T02:47:36.894Z,10.97
2023-05-19T02:50:04.844Z,11.03
2023-05-19T02:52:31.407Z,11.07
2023-05-19T02:54:57.918Z,11.00
2023-05-19T02:57:24.489Z,10.86
2023-05-19T02:59:51.126Z,10.98
2023-05-19T03:02:17.706Z,10.77
2023-05-19T03:04:44.264Z,10.70
2023-05-19T03:07:10.953Z,10.81
2023-05-19T03:09:37.952Z,10.67
2023-05-19T03:12:06.538Z,10.61
2023-05-19T03:14:37.319Z,10.52
2023-05-19T03:17:04.110Z,10.55
2023-05-19T03:19:32.517Z,10.36
2023-05-19T03:21:59.039Z,10.49
2023-05-19T03:24:25.632Z,10.42
2023-05-19T03:26:52.280Z,10.55
2023-05-19T03:29:18.824Z,10.57
2023-05-19T03:31:45.500Z,10.45
2023-05-19T03:34:12.002Z,10.56
2023-05-19T03:36:41.068Z,10.61
2023-05-19T03:39:07.619Z,10.45
2023-05-19T03:41:35.159Z,10.48
2023-05-19T03:44:01.679Z,10.61
2023-05-19T03:46:28.472Z,10.49
2023-05-19T03:48:56.145Z,10.69
2023-05-19T03:51:22.663Z,10.71
2023-05-19T03:53:49.198Z,10.70
2023-05-19T03:56:18.108Z,10.56
2023-05-19T03:58:45.092Z,10.70
2023-05-19T04:01:11.806Z,10.79
2023-05-19T04:03:38.479Z,10.74
2023-05-19T04:06:05.035Z,10.75
2023-05-19T04:08:32.148Z,10.83
2023-05-19T04:10:58.734Z,10.93
2023-05-19T04:13:25.439Z,11.04
2023-05-19T04:15:52.231Z,11.14
2023-05-19T04:18:19.430Z,11.08
2023-05-19T04:20:45.928Z,11.07
2023-05-19T04:23:14.420Z,11.11
2023-05-19T04:25:41.890Z,11.34
2023-05-19T04:28:08.438Z,11.44
2023-05-19T04:30:35.265Z,11.62
2023-05-19T04:33:03.556Z,11.62
2023-05-19T04:35:30.160Z,11.84
2023-05-19T04:37:56.829Z,11.66
2023-05-19T04:40:23.906Z,11.71
2023-05-19T04:42:52.290Z,11.77
2023-05-19T04:45:18.977Z,11.66
2023-05-19T04:47:48.125Z,11.62
2023-05-19T04:50:16.725Z,11.71
2023-05-19T04:52:45.471Z,11.61
2023-05-19T04:55:13.025Z,11.62
2023-05-19T04:57:39.998Z,11.48
2023-05-19T05:00:12.170Z,11.35
2023-05-19T05:02:38.792Z,11.46
2023-05-19T05:05:05.806Z,11.53
2023-05-19T05:07:32.684Z,11.36
2023-05-19T05:09:59.711Z,11.44
2023-05-19T05:12:26.649Z,11.44
2023-05-19T05:14:53.488Z,11.67
2023-05-19T05:17:20.555Z,11.75
2023-05-19T05:19:48.485Z,11.87
2023-05-19T05:22:15.429Z,12.07
2023-05-19T05:24:42.193Z,12.00
2023-05-19T05:27:10.212Z,11.98
2023-05-19T05:29:36.953Z,12.04
2023-05-19T05:32:03.648Z,12.12
2023-05-19T05:34:30.196Z,12.08
2023-05-19T05:36:56.715Z,11.82
2023-05-19T05:39:23.200Z,12.08
2023-05-19T05:41:49.684Z,12.01
2023-05-19T05:44:16.182Z,12.00
2023-05-19T05:46:42.955Z,12.01
2023-05-19T05:49:09.800Z,12.03
2023-05-19T05:51:36.620Z,12.17
2023-05-19T05:54:06.182Z,12.21
2023-05-19T05:56:37.063Z,12.27
2023-05-19T05:59:03.657Z,12.25
2023-05-19T06:01:35.448Z,12.23
2023-05-19T06:04:02.208Z,12.08
2023-05-19T06:06:28.831Z,12.38
2023-05-19T06:08:55.367Z,12.26
2023-05-19T06:11:21.952Z,12.51
2023-05-19T06:13:48.456Z,12.64
2023-05-19T06:16:14.991Z,12.62
2023-05-19T06:18:42.589Z,12.77
2023-05-19T06:21:10.395Z,12.92
2023-05-19T06:23:37.087Z,12.81
2023-05-19T06:26:03.667Z,12.86
2023-05-19T06:28:30.261Z,12.90
2023-05-19T06:30:56.828Z,12.92
2023-05-19T06:33:23.323Z,12.88
2023-05-19T06:35:49.864Z,13.01
2023-05-19T06:38:16.433Z,12.95
2023-05-19T06:40:43.993Z,13.07
2023-05-19T06:43:10.520Z,12.68
2023-05-19T06:45:37.098Z,12.81
2023-05-19T06:48:04.799Z,12.92
2023-05-19T06:50:31.854Z,13.06
2023-05-19T06:52:58.598Z,13.08
2023-05-19T06:55:25.169Z,13.17
2023-05-19T06:57:51.676Z,13.18
2023-05-19T07:00:19.946Z,13.36
2023-05-19T07:02:48.572Z,13.38
2023-05-19T07:05:15.235Z,13.39
2023-05-19T07:07:42.445Z,13.73
2023-05-19T07:10:09.838Z,13.73
2023-05-19T07:12:36.347Z,13.90
2023-05-19T07:15:03.100Z,13.92
2023-05-19T07:17:30.692Z,13.76
2023-05-19T07:19:57.191Z,13.83
2023-05-19T07:22:24.221Z,14.04
2023-05-19T07:24:51.190Z,13.91
2023-05-19T07:27:17.727Z,14.26
2023-05-19T07:29:44.319Z,14.22
2023-05-19T07:32:10.869Z,14.43
2023-05-19T07:34:37.663Z,14.64
2023-05-19T07:37:04.309Z,14.72
2023-05-19T07:39:32.312Z,14.64
2023-05-19T07:41:59.390Z,14.92
2023-05-19T07:44:27.119Z,15.03
2023-05-19T07:46:54.757Z,15.41
2023-05-19T07:49:21.279Z,15.80
2023-05-19T07:51:47.818Z,16.20
2023-05-19T07:54:14.498Z,16.64
2023-05-19T07:56:41.767Z,16.80
2023-05-19T07:59:08.317Z,16.26
2023-05-19T08:01:34.942Z,16.20
2023-05-19T08:04:01.561Z,15.82
2023-05-19T08:06:30.051Z,16.05
2023-05-19T08:08:56.585Z,16.06
2023-05-19T08:11:24.142Z,16.70
2023-05-19T08:13:50.964Z,17.13
2023-05-19T08:16:17.738Z,17.24
2023-05-19T08:18:44.390Z,17.42
2023-05-19T08:21:11.015Z,17.25
2023-05-19T08:23:38.402Z,17.06
2023-05-19T08:26:05.491Z,17.25
2023-05-19T08:28:32.199Z,16.61
2023-05-19T08:30:58.827Z,16.59
2023-05-19T08:33:25.575Z,16.66
2023-05-19T08:35:52.102Z,16.84
2023-05-19T08:38:18.600Z,16.96
2023-05-19T08:40:47.721Z,16.67
2023-05-19T08:43:14.612Z,17.16
2023-05-19T08:45:45.462Z,16.69
2023-05-19T08:48:13.674Z,16.75
2023-05-19T08:50:42.630Z,17.04
2023-05-19T08:53:32.520Z,17.10
2023-05-19T08:56:36.277Z,17.66
2023-05-19T08:59:04.157Z,17.65
2023-05-19T09:01:31.286Z,17.76
2023-05-19T09:03:58.573Z,17.78
2023-05-19T09:06:26.292Z,17.41
2023-05-19T09:08:53.006Z,17.49
2023-05-19T09:11:19.593Z,17.57
2023-05-19T09:13:46.130Z,17.49
2023-05-19T09:16:13.361Z,18.53
2023-05-19T09:18:40.947Z,19.08
2023-05-19T09:21:07.992Z,19.47
2023-05-19T09:23:34.672Z,20.25
2023-05-19T09:26:07.765Z,21.00
2023-05-19T09:28:36.684Z,20.46
2023-05-19T09:31:04.957Z,19.24
2023-05-19T09:33:36.852Z,19.14
2023-05-19T09:36:06.464Z,18.92
2023-05-19T09:38:33.096Z,19.43
2023-05-19T09:41:01.042Z,19.01
2023-05-19T09:43:33.386Z,19.39
2023-05-19T09:46:03.930Z,19.51
2023-05-19T09:48:30.543Z,19.72
2023-05-19T09:50:58.128Z,19.10
2023-05-19T09:53:27.857Z,19.71
2023-05-19T09:56:00.299Z,19.73
2023-05-19T09:58:27.119Z,19.94
2023-05-19T10:00:54.888Z,19.89
2023-05-19T10:03:25.419Z,20.04
2023-05-19T10:05:53.240Z,20.23
2023-05-19T10:08:20.266Z,20.42
2023-05-19T10:10:47.832Z,20.34
2023-05-19T10:13:16.537Z,20.30
2023-05-19T10:15:57.166Z,20.41
2023-05-19T10:18:26.611Z,20.41
2023-05-19T10:20:54.290Z,20.46
2023-05-19T10:23:21.169Z,20.80
2023-05-19T10:25:49.279Z,20.79
2023-05-19T10:28:21.337Z,20.41
2023-05-19T10:30:53.415Z,20.87
2023-05-19T10:33:24.117Z,20.70
2023-05-19T10:36:15.882Z,20.84
2023-05-19T10:38:48.322Z,20.70
2023-05-19T10:41:32.105Z,20.56
2023-05-19T10:44:22.992Z,20.15
2023-05-19T10:46:50.602Z,20.37
2023-05-19T10:49:22.015Z,20.56
2023-05-19T10:51:50.104Z,20.66
2023-05-19T10:54:18.413Z,20.44
2023-05-19T10:56:47.892Z,20.35
2023-05-19T10:59:35.946Z,20.55
2023-05-19T11:02:08.280Z,21.11
2023-05-19T11:04:51.951Z,21.18
2023-05-19T11:07:20.497Z,21.54
2023-05-19T11:09:53.757Z,21.25
2023-05-19T11:12:25.045Z,21.53
2023-05-19T11:14:55.509Z,21.51
2023-05-19T11:17:25.046Z,22.05
2023-05-19T11:19:56.053Z,21.99
2023-05-19T11:22:25.034Z,21.81
2023-05-19T11:24:54.584Z,21.37
2023-05-19T11:27:38.491Z,21.28
2023-05-19T11:30:11.732Z,20.80
2023-05-19T11:32:44.386Z,20.47
2023-05-19T11:35:11.185Z,20.57
2023-05-19T11:37:37.860Z,20.23
2023-05-19T11:40:07.160Z,20.57
2023-05-19T11:42:34.972Z,20.57
2023-05-19T11:45:01.645Z,20.56
2023-05-19T11:47:28.293Z,20.73
2023-05-19T11:49:56.696Z,20.71
2023-05-19T11:52:24.411Z,20.58
2023-05-19T11:54:51.571Z,20.69
2023-05-19T11:57:30.109Z,20.56
2023-05-19T11:59:57.256Z,20.54
2023-05-19T12:02:25.353Z,20.29
2023-05-19T12:04:52.547Z,20.55
2023-05-19T12:07:22.837Z,20.58
2023-05-19T12:09:51.736Z,20.61
2023-05-19T12:12:20.108Z,20.71
2023-05-19T12:14:47.889Z,20.72
2023-05-19T12:17:16.710Z,21.00
2023-05-19T12:19:44.768Z,21.01
2023-05-19T12:22:11.758Z,21.12
2023-05-19T12:24:40.087Z,21.15
2023-05-19T12:27:28.676Z,21.71
2023-05-19T12:30:00.096Z,21.64
2023-05-19T12:32:28.682Z,21.19
2023-05-19T12:34:58.790Z,21.48
2023-05-19T12:37:30.092Z,20.95
2023-05-19T12:39:57.298Z,20.93
2023-05-19T12:42:26.469Z,20.57
2023-05-19T12:44:54.769Z,20.70
2023-05-19T12:47:22.509Z,20.48
2023-05-19T12:49:59.003Z,20.62
2023-05-19T12:52:28.981Z,20.68
2023-05-19T12:55:05.107Z,20.36
2023-05-19T12:57:37.129Z,20.30
2023-05-19T13:00:17.628Z,20.68
2023-05-19T13:03:02.847Z,21.09
2023-05-19T13:05:31.492Z,21.02
2023-05-19T13:08:00.179Z,21.20
2023-05-19T13:10:27.702Z,21.23
2023-05-19T13:13:00.294Z,21.22
2023-05-19T13:15:32.118Z,21.12
2023-05-19T13:17:59.978Z,21.15
2023-05-19T13:20:28.507Z,21.29
2023-05-19T13:22:56.095Z,20.91
2023-05-19T13:25:23.051Z,20.71
2023-05-19T13:27:49.717Z,21.02
2023-05-19T13:30:18.391Z,20.61
2023-05-19T13:32:46.057Z,20.79
2023-05-19T13:35:13.902Z,20.93
2023-05-19T13:37:42.023Z,21.04
2023-05-19T13:40:10.490Z,21.10
2023-05-19T13:42:38.112Z,21.38
2023-05-19T13:45:05.107Z,21.25
2023-05-19T13:47:31.707Z,21.34
2023-05-19T13:49:58.284Z,21.32
2023-05-19T13:52:25.292Z,20.95
2023-05-19T13:54:54.553Z,20.81
2023-05-19T13:57:24.100Z,20.44
2023-05-19T14:00:01.801Z,20.72
2023-05-19T14:02:30.526Z,21.05
2023-05-19T14:04:57.569Z,20.85
2023-05-19T14:07:24.300Z,20.88
2023-05-19T14:09:52.304Z,20.91
2023-05-19T14:12:19.346Z,20.97
2023-05-19T14:14:49.001Z,21.27
2023-05-19T14:17:15.962Z,21.16
2023-05-19T14:19:42.474Z,21.20
2023-05-19T14:22:09.047Z,20.93
2023-05-19T14:24:35.630Z,20.64
2023-05-19T14:27:02.293Z,20.40
2023-05-19T14:29:31.067Z,20.87
2023-05-19T14:31:57.678Z,20.80
2023-05-19T14:34:24.315Z,20.76
2023-05-19T14:36:50.962Z,20.37
2023-05-19T14:39:17.519Z,20.37
2023-05-19T14:41:44.061Z,20.62
2023-05-19T14:44:10.659Z,20.76
2023-05-19T14:46:37.178Z,20.58
2023-05-19T14:49:04.252Z,20.67
2023-05-19T14:51:32.866Z,20.90
2023-05-19T14:54:00.477Z,20.93
2023-05-19T14:56:28.028Z,20.61
2023-05-19T14:58:54.572Z,20.50
2023-05-19T15:01:21.211Z,20.35
2023-05-19T15:03:47.860Z,20.48
2023-05-19T15:06:14.545Z,20.19
2023-05-19T15:08:43.067Z,19.98
2023-05-19T15:11:09.605Z,20.01
2023-05-19T15:13:36.184Z,20.24
2023-05-19T15:16:16.876Z,20.24
2023-05-19T15:18:44.586Z,20.40
2023-05-19T15:21:11.134Z,19.86
2023-05-19T15:23:37.902Z,19.79
2023-05-19T15:26:05.736Z,19.87
2023-05-19T15:28:32.308Z,19.51
2023-05-19T15:30:58.984Z,19.33
2023-05-19T15:33:25.690Z,19.52
2023-05-19T15:35:53.348Z,19.45
2023-05-19T15:38:20.185Z,19.34
2023-05-19T15:40:46.951Z,19.61
2023-05-19T15:43:13.958Z,19.53
2023-05-19T15:45:40.952Z,19.65
2023-05-19T15:48:07.636Z,19.77
2023-05-19T15:50:34.677Z,19.68
2023-05-19T15:53:01.506Z,19.62
2023-05-19T15:55:28.115Z,19.65
2023-05-19T15:57:54.595Z,19.22
2023-05-19T16:00:21.328Z,19.20
2023-05-19T16:02:47.965Z,19.13
2023-05-19T16:05:14.594Z,19.21
2023-05-19T16:07:42.228Z,19.31
2023-05-19T16:10:09.259Z,19.10
2023-05-19T16:12:36.756Z,19.01
2023-05-19T16:15:03.711Z,19.01
2023-05-19T16:17:30.390Z,19.07
2023-05-19T16:19:56.968Z,19.07
2023-05-19T16:22:24.806Z,19.09
2023-05-19T16:24:52.124Z,18.96
2023-05-19T16:27:18.834Z,18.97
2023-05-19T16:29:45.353Z,18.76
2023-05-19T16:32:12.385Z,18.84
2023-05-19T16:34:39.078Z,18.96
2023-05-19T16:37:05.659Z,19.18
2023-05-19T16:39:32.217Z,18.79
2023-05-19T16:41:58.690Z,18.68
2023-05-19T16:44:26.334Z,18.52
2023-05-19T16:47:01.130Z,18.43
2023-05-19T16:49:27.605Z,18.41
2023-05-19T16:51:54.271Z,18.35
2023-05-19T16:54:21.252Z,18.23
2023-05-19T16:56:48.340Z,18.17
2023-05-19T16:59:14.914Z,18.20
2023-05-19T17:01:45.766Z,18.23
2023-05-19T17:04:12.280Z,18.14
2023-05-19T17:06:38.776Z,17.95
2023-05-19T17:09:05.280Z,17.87
2023-05-19T17:11:31.846Z,17.83
2023-05-19T17:13:59.601Z,17.90
2023-05-19T17:16:26.209Z,17.85
2023-05-19T17:18:52.890Z,17.76
2023-05-19T17:21:19.461Z,17.70
2023-05-19T17:23:46.019Z,17.98
2023-05-19T17:26:12.527Z,17.76
2023-05-19T17:28:39.019Z,17.74
2023-05-19T17:31:12.454Z,17.91
2023-05-19T17:33:39.264Z,17.86
2023-05-19T17:36:06.730Z,18.00
2023-05-19T17:38:34.498Z,18.00
2023-05-19T17:41:02.147Z,17.78
2023-05-19T17:43:28.843Z,17.73
2023-05-19T17:45:55.383Z,17.62
2023-05-19T17:48:21.884Z,17.68
2023-05-19T17:50:49.160Z,17.66
2023-05-19T17:53:16.189Z,17.57
2023-05-19T17:55:51.830Z,17.28
2023-05-19T17:58:19.002Z,17.52
2023-05-19T18:00:45.922Z,17.14
2023-05-19T18:03:12.849Z,17.15
2023-05-19T18:05:40.166Z,17.24
2023-05-19T18:08:09.686Z,17.14
2023-05-19T18:10:40.872Z,17.05
2023-05-19T18:13:09.066Z,17.19
2023-05-19T18:15:36.109Z,17.01
2023-05-19T18:18:04.285Z,16.98
2023-05-19T18:20:31.476Z,17.08
2023-05-19T18:22:58.248Z,16.77
2023-05-19T18:25:24.892Z,16.66
2023-05-19T18:27:51.451Z,16.68
2023-05-19T18:30:18.422Z,16.65
2023-05-19T18:32:45.935Z,16.57
2023-05-19T18:35:13.656Z,16.55
2023-05-19T18:37:41.287Z,16.62
2023-05-19T18:40:08.285Z,16.39
2023-05-19T18:42:34.758Z,16.29
2023-05-19T18:45:01.259Z,16.36
2023-05-19T18:47:27.706Z,16.32
2023-05-19T18:49:54.362Z,16.18
2023-05-19T18:52:21.955Z,16.33
2023-05-19T18:54:48.804Z,16.23
2023-05-19T18:57:15.389Z,16.20
2023-05-19T18:59:41.862Z,16.32
2023-05-19T19:02:08.375Z,15.93
2023-05-19T19:04:34.990Z,16.19
2023-05-19T19:07:01.554Z,15.93
2023-05-19T19:09:28.096Z,15.85
2023-05-19T19:11:55.677Z,15.95
2023-05-19T19:14:24.215Z,15.90
2023-05-19T19:16:50.884Z,16.04
2023-05-19T19:19:18.568Z,15.81
2023-05-19T19:21:45.178Z,15.63
2023-05-19T19:24:13.533Z,15.65
2023-05-19T19:26:41.016Z,15.56
2023-05-19T19:29:07.516Z,15.38
2023-05-19T19:31:34.024Z,15.52
2023-05-19T19:34:03.827Z,15.48
2023-05-19T19:36:32.038Z,15.57
2023-05-19T19:38:58.875Z,15.48
2023-05-19T19:41:26.503Z,15.51
2023-05-19T19:43:53.136Z,15.49
2023-05-19T19:46:19.731Z,15.39
2023-05-19T19:48:46.261Z,15.14
2023-05-19T19:51:12.803Z,15.23
2023-05-19T19:53:39.296Z,15.15
2023-05-19T19:56:07.146Z,15.23
2023-05-19T19:58:33.652Z,15.27
2023-05-19T20:01:03.335Z,15.09
2023-05-19T20:03:30.056Z,15.02
2023-05-19T20:05:57.010Z,15.04
2023-05-19T20:08:24.804Z,15.20
2023-05-19T20:10:51.472Z,15.11
2023-05-19T20:13:19.012Z,15.10
2023-05-19T20:15:47.207Z,15.03
2023-05-19T20:18:13.901Z,14.87
2023-05-19T20:20:41.333Z,14.93
2023-05-19T20:23:09.923Z,14.94
2023-05-19T20:25:54.802Z,15.06
2023-05-19T20:28:29.355Z,15.04
2023-05-19T20:30:55.927Z,15.00
2023-05-19T20:33:22.431Z,14.86
2023-05-19T20:35:48.933Z,14.80
2023-05-19T20:38:15.432Z,14.89
2023-05-19T20:40:41.998Z,14.88
2023-05-19T20:43:08.596Z,14.87
2023-05-19T20:45:35.352Z,14.75
2023-05-19T20:48:03.693Z,14.85
2023-05-19T20:50:30.687Z,14.80
2023-05-19T20:52:57.285Z,14.70
2023-05-19T20:55:23.816Z,14.82
2023-05-19T20:57:50.367Z,14.85
2023-05-19T21:00:17.205Z,14.82
2023-05-19T21:02:44.887Z,14.82
2023-05-19T21:05:11.633Z,14.75
2023-05-19T21:07:38.250Z,14.77
2023-05-19T21:10:05.197Z,14.82
2023-05-19T21:12:34.249Z,14.88
2023-05-19T21:15:01.700Z,14.82
2023-05-19T21:17:28.265Z,14.80
2023-05-19T21:19:58.007Z,14.86
2023-05-19T21:22:26.129Z,15.06
2023-05-19T21:24:53.729Z,14.72
2023-05-19T21:27:20.264Z,14.85
2023-05-19T21:29:46.977Z,14.74
2023-05-19T21:32:13.450Z,14.75
2023-05-19T21:34:40.014Z,14.79
2023-05-19T21:37:06.616Z,14.85
2023-05-19T21:39:33.126Z,14.73
2023-05-19T21:41:59.620Z,14.66
2023-05-19T21:44:27.153Z,14.79
2023-05-19T21:46:53.719Z,14.66
2023-05-19T21:49:21.391Z,14.60
2023-05-19T21:51:47.927Z,14.68
2023-05-19T21:54:15.449Z,14.48
2023-05-19T21:56:41.923Z,14.81
2023-05-19T21:59:09.179Z,14.70
2023-05-19T22:01:35.711Z,14.63
2023-05-19T22:04:02.374Z,14.72
2023-05-19T22:06:29.002Z,14.54
2023-05-19T22:08:55.780Z,14.62
2023-05-19T22:11:22.773Z,14.65
2023-05-19T22:13:50.092Z,14.71
2023-05-19T22:16:16.640Z,14.66
2023-05-19T22:18:43.346Z,14.56
2023-05-19T22:21:09.882Z,14.59
2023-05-19T22:23:36.405Z,14.88
2023-05-19T22:26:02.927Z,14.67
2023-05-19T22:28:29.447Z,14.70
2023-05-19T22:30:55.931Z,14.57
2023-05-19T22:33:22.418Z,14.54
2023-05-19T22:35:48.953Z,14.64
2023-05-19T22:38:15.420Z,14.60
2023-05-19T22:40:42.044Z,14.61
2023-05-19T22:43:09.543Z,14.64
2023-05-19T22:45:36.685Z,14.59
2023-05-19T22:48:03.667Z,14.54
2023-05-19T22:50:30.424Z,14.66
2023-05-19T22:52:57.120Z,14.66
2023-05-19T22:55:23.769Z,14.59
2023-05-19T22:57:50.404Z,14.60
2023-05-19T23:00:21.026Z,14.61
2023-05-19T23:02:47.625Z,14.56
2023-05-19T23:05:15.151Z,14.52
2023-05-19T23:07:41.662Z,14.56
2023-05-19T23:10:09.394Z,14.56
2023-05-19T23:12:36.037Z,14.42
2023-05-19T23:15:04.934Z,14.46
2023-05-19T23:17:31.537Z,14.56
2023-05-19T23:19:58.018Z,14.56
2023-05-19T23:22:24.578Z,14.65
2023-05-19T23:24:52.115Z,14.67
2023-05-19T23:27:18.646Z,14.55
2023-05-19T23:29:49.101Z,14.54
2023-05-19T23:32:16.026Z,14.68
2023-05-19T23:34:42.646Z,14.60
2023-05-19T23:37:09.130Z,14.52
2023-05-19T23:39:35.674Z,14.45
2023-05-19T23:42:02.129Z,14.47
2023-05-19T23:44:28.614Z,14.63
2023-05-19T23:46:55.163Z,14.42
2023-05-19T23:49:22.022Z,14.42
2023-05-19T23:51:48.601Z,14.46
2023-05-19T23:54:15.090Z,14.22
2023-05-19T23:56:41.613Z,14.70
2023-05-19T23:59:08.138Z,14.47
